createdAt,value
2017-10-19T00:00:17.433Z,70.80
2017-10-19T00:02:45.440Z,71.87
2017-10-19T00:05:13.028Z,67.50
2017-10-19T00:07:40.585Z,65.20
2017-10-19T00:10:08.245Z,60.90
2017-10-19T00:12:35.901Z,62.57
2017-10-19T00:15:03.566Z,62.63
2017-10-19T00:17:31.123Z,76.93
2017-10-19T00:19:59.703Z,80.93
2017-10-19T00:22:27.272Z,70.43
2017-10-19T00:24:54.835Z,72.50
2017-10-19T00:27:22.396Z,60.50
2017-10-19T00:29:49.961Z,73.13
2017-10-19T00:32:17.583Z,63.27
2017-10-19T00:34:45.515Z,64.57
2017-10-19T00:37:13.081Z,59.40
2017-10-19T00:39:40.645Z,80.13
2017-10-19T00:42:08.237Z,62.63
2017-10-19T00:44:35.834Z,71.17
2017-10-19T00:47:03.440Z,68.97
2017-10-19T00:49:31.001Z,76.63
2017-10-19T00:51:58.560Z,69.57
2017-10-19T00:54:26.119Z,62.90
2017-10-19T00:56:53.677Z,74.03
2017-10-19T00:59:21.272Z,74.37
2017-10-19T01:01:48.832Z,71.10
2017-10-19T01:04:17.081Z,57.20
2017-10-19T01:06:45.236Z,78.43
2017-10-19T01:09:12.870Z,63.87
2017-10-19T01:11:40.474Z,77.93
2017-10-19T01:14:08.034Z,80.80
2017-10-19T01:16:35.659Z,58.33
2017-10-19T01:19:03.224Z,65.80
2017-10-19T01:21:30.792Z,66.97
2017-10-19T01:23:58.398Z,61.23
2017-10-19T01:26:25.960Z,76.30
2017-10-19T01:28:53.519Z,70.03
2017-10-19T01:31:21.085Z,59.10
2017-10-19T01:33:48.655Z,64.97
2017-10-19T01:36:16.849Z,73.53
2017-10-19T01:38:44.583Z,59.30
2017-10-19T01:41:12.138Z,72.80
2017-10-19T01:43:39.734Z,66.40
2017-10-19T01:46:07.336Z,53.13
2017-10-19T01:48:35.029Z,70.43
2017-10-19T01:51:02.588Z,75.40
2017-10-19T01:53:30.156Z,76.63
2017-10-19T01:55:57.712Z,76.33
2017-10-19T01:58:25.332Z,61.90
2017-10-19T02:00:52.943Z,64.10
2017-10-19T02:03:20.629Z,75.77
2017-10-19T02:05:48.192Z,70.47
2017-10-19T02:08:15.752Z,73.53
2017-10-19T02:10:43.313Z,73.37
2017-10-19T02:13:10.876Z,102.43
2017-10-19T02:15:38.437Z,76.37
2017-10-19T02:18:06.001Z,68.60
2017-10-19T02:20:33.562Z,60.67
2017-10-19T02:23:01.121Z,72.80
2017-10-19T02:25:28.781Z,68.00
2017-10-19T02:27:56.920Z,71.53
2017-10-19T02:30:24.474Z,76.30
2017-10-19T02:32:52.041Z,68.33
2017-10-19T02:35:19.734Z,65.47
2017-10-19T02:37:47.300Z,68.27
2017-10-19T02:40:14.868Z,62.07
2017-10-19T02:42:42.490Z,56.07
2017-10-19T02:45:10.085Z,76.80
2017-10-19T02:47:37.646Z,65.43
2017-10-19T02:50:05.307Z,72.03
2017-10-19T02:52:32.909Z,73.10
2017-10-19T02:55:00.473Z,79.53
2017-10-19T02:57:28.081Z,75.82
2017-10-19T02:59:56.820Z,77.10
2017-10-19T03:02:24.434Z,57.20
2017-10-19T03:04:52.095Z,54.30
2017-10-19T03:07:19.656Z,62.60
2017-10-19T03:09:47.253Z,71.10
2017-10-19T03:12:14.830Z,59.93
2017-10-19T03:14:42.393Z,58.70
2017-10-19T03:17:09.984Z,70.17
2017-10-19T03:19:37.571Z,65.43
2017-10-19T03:22:05.185Z,57.27
2017-10-19T03:24:32.751Z,72.47
2017-10-19T03:27:00.314Z,61.70
2017-10-19T03:29:27.956Z,84.33
2017-10-19T03:31:55.582Z,68.80
2017-10-19T03:34:23.181Z,80.30
2017-10-19T03:36:50.742Z,79.47
2017-10-19T03:39:18.377Z,71.50
2017-10-19T03:41:45.945Z,57.37
2017-10-19T03:44:13.504Z,63.70
2017-10-19T03:46:41.104Z,55.53
2017-10-19T03:49:08.664Z,57.20
2017-10-19T03:51:36.223Z,47.03
2017-10-19T03:54:03.787Z,46.67
2017-10-19T03:56:31.385Z,51.90
2017-10-19T03:58:59.041Z,53.73
2017-10-19T04:01:26.607Z,46.90
2017-10-19T04:03:54.177Z,51.27
2017-10-19T04:06:21.825Z,65.37
2017-10-19T04:08:49.386Z,63.17
2017-10-19T04:11:17.559Z,55.20
2017-10-19T04:13:45.123Z,58.23
2017-10-19T04:16:12.758Z,72.57
2017-10-19T04:18:40.344Z,56.70
2017-10-19T04:21:07.914Z,54.03
2017-10-19T04:23:35.573Z,48.67
2017-10-19T04:26:03.133Z,48.43
2017-10-19T04:28:30.729Z,47.97
2017-10-19T04:30:58.294Z,47.03
2017-10-19T04:33:25.895Z,54.73
2017-10-19T04:35:53.498Z,40.20
2017-10-19T04:38:21.060Z,45.80
2017-10-19T04:40:49.098Z,40.17
2017-10-19T04:43:16.665Z,53.47
2017-10-19T04:45:44.234Z,41.03
2017-10-19T04:48:11.793Z,45.83
2017-10-19T04:50:39.420Z,44.40
2017-10-19T04:53:07.029Z,43.13
2017-10-19T04:55:34.741Z,44.57
2017-10-19T04:58:02.341Z,56.83
2017-10-19T05:00:29.998Z,52.13
2017-10-19T05:02:57.568Z,47.63
2017-10-19T05:05:25.191Z,48.70
2017-10-19T05:07:52.753Z,59.73
2017-10-19T05:10:20.319Z,61.70
2017-10-19T05:12:47.973Z,56.63
2017-10-19T05:15:15.573Z,68.20
2017-10-19T05:17:43.141Z,65.97
2017-10-19T05:20:10.799Z,47.73
2017-10-19T05:22:38.393Z,51.53
2017-10-19T05:25:06.013Z,57.50
2017-10-19T05:27:33.628Z,51.07
2017-10-19T05:30:01.198Z,50.30
2017-10-19T05:32:28.767Z,45.03
2017-10-19T05:34:56.330Z,55.30
2017-10-19T05:37:24.005Z,60.53
2017-10-19T05:39:51.564Z,61.67
2017-10-19T05:42:19.850Z,58.93
2017-10-19T05:44:47.409Z,42.67
2017-10-19T05:47:15.009Z,69.70
2017-10-19T05:49:42.574Z,57.90
2017-10-19T05:52:10.178Z,73.47
2017-10-19T05:54:37.741Z,63.40
2017-10-19T05:57:05.307Z,59.67
2017-10-19T05:59:32.896Z,50.07
2017-10-19T06:02:00.471Z,52.30
2017-10-19T06:04:28.071Z,78.83
2017-10-19T06:06:55.668Z,50.83
2017-10-19T06:09:23.233Z,54.53
2017-10-19T06:11:50.797Z,54.40
2017-10-19T06:14:19.251Z,49.57
2017-10-19T06:16:46.821Z,75.53
2017-10-19T06:19:14.401Z,120.43
2017-10-19T06:21:41.971Z,74.90
2017-10-19T06:24:09.609Z,71.10
2017-10-19T06:26:37.177Z,72.13
2017-10-19T06:29:04.782Z,57.43
2017-10-19T06:31:32.382Z,62.53
2017-10-19T06:33:59.989Z,76.03
2017-10-19T06:36:27.555Z,58.40
2017-10-19T06:38:55.156Z,62.27
2017-10-19T06:41:22.773Z,66.93
2017-10-19T06:43:50.345Z,93.03
2017-10-19T06:46:17.909Z,74.43
2017-10-19T06:48:45.476Z,81.67
2017-10-19T06:51:13.072Z,69.67
2017-10-19T06:53:40.673Z,66.23
2017-10-19T06:56:08.312Z,72.83
2017-10-19T06:58:35.968Z,60.83
2017-10-19T07:01:03.528Z,64.93
2017-10-19T07:03:31.097Z,97.57
2017-10-19T07:05:58.665Z,58.90
2017-10-19T07:08:26.277Z,125.53
2017-10-19T07:10:53.845Z,53.57
2017-10-19T07:13:21.441Z,69.73
2017-10-19T07:15:49.062Z,75.27
2017-10-19T07:18:16.625Z,72.93
2017-10-19T07:20:44.189Z,74.43
2017-10-19T07:23:11.752Z,70.40
2017-10-19T07:25:39.358Z,63.57
2017-10-19T07:28:07.000Z,78.03
2017-10-19T07:30:34.564Z,73.23
2017-10-19T07:33:02.176Z,74.87
2017-10-19T07:35:29.741Z,83.27
2017-10-19T07:37:57.304Z,82.67
2017-10-19T07:40:24.918Z,113.70
2017-10-19T07:42:52.481Z,54.90
2017-10-19T07:45:20.098Z,105.60
2017-10-19T07:47:48.301Z,117.43
2017-10-19T07:50:17.202Z,73.47
2017-10-19T07:52:44.777Z,112.53
2017-10-19T07:55:12.353Z,95.13
2017-10-19T07:57:39.920Z,83.90
2017-10-19T08:00:07.544Z,92.27
2017-10-19T08:02:35.145Z,123.20
2017-10-19T08:05:02.718Z,123.00
2017-10-19T08:07:30.329Z,67.20
2017-10-19T08:09:57.917Z,137.50
2017-10-19T08:12:25.485Z,60.77
2017-10-19T08:14:53.096Z,101.53
2017-10-19T08:17:20.664Z,133.80
2017-10-19T08:19:48.974Z,93.57
2017-10-19T08:22:16.546Z,144.10
2017-10-19T08:24:44.113Z,76.57
2017-10-19T08:27:11.709Z,94.27
2017-10-19T08:29:39.273Z,89.50
2017-10-19T08:32:06.835Z,68.50
2017-10-19T08:34:34.392Z,85.93
2017-10-19T08:37:02.004Z,107.00
2017-10-19T08:39:29.564Z,79.50
2017-10-19T08:41:57.200Z,63.40
2017-10-19T08:44:24.773Z,52.37
2017-10-19T08:46:52.371Z,68.50
2017-10-19T08:49:20.663Z,78.40
2017-10-19T08:51:48.222Z,69.13
2017-10-19T08:54:15.921Z,72.83
2017-10-19T08:56:43.494Z,65.73
2017-10-19T08:59:11.108Z,58.30
2017-10-19T09:01:38.708Z,72.97
2017-10-19T09:04:06.277Z,90.97
2017-10-19T09:06:33.849Z,53.43
2017-10-19T09:09:01.417Z,51.37
2017-10-19T09:11:29.018Z,89.00
2017-10-19T09:13:56.590Z,70.07
2017-10-19T09:16:24.192Z,62.30
2017-10-19T09:18:51.774Z,121.37
2017-10-19T09:21:19.343Z,79.47
2017-10-19T09:23:46.946Z,70.53
2017-10-19T09:26:14.551Z,75.60
2017-10-19T09:28:42.148Z,57.93
2017-10-19T09:31:09.750Z,64.97
2017-10-19T09:33:37.349Z,53.60
2017-10-19T09:36:04.953Z,149.77
2017-10-19T09:38:32.521Z,64.47
2017-10-19T09:41:00.189Z,85.70
2017-10-19T09:43:27.757Z,80.43
2017-10-19T09:45:55.328Z,50.80
2017-10-19T09:48:22.905Z,64.40
2017-10-19T09:50:50.990Z,83.57
2017-10-19T09:53:18.586Z,56.57
2017-10-19T09:55:46.185Z,57.73
2017-10-19T09:58:13.815Z,75.13
2017-10-19T10:00:41.493Z,56.80
2017-10-19T10:03:09.056Z,80.17
2017-10-19T10:05:36.616Z,62.83
2017-10-19T10:08:04.230Z,66.00
2017-10-19T10:10:31.860Z,51.03
2017-10-19T10:12:59.501Z,64.33
2017-10-19T10:15:27.109Z,60.47
2017-10-19T10:17:54.683Z,67.70
2017-10-19T10:20:22.297Z,64.17
2017-10-19T10:22:50.532Z,71.70
2017-10-19T10:25:18.100Z,68.33
2017-10-19T10:27:45.697Z,69.37
2017-10-19T10:30:13.266Z,73.17
2017-10-19T10:32:40.828Z,74.20
2017-10-19T10:35:08.396Z,63.73
2017-10-19T10:37:36.019Z,71.63
2017-10-19T10:40:03.586Z,64.97
2017-10-19T10:42:31.185Z,69.90
2017-10-19T10:44:58.751Z,76.63
2017-10-19T10:47:26.468Z,68.67
2017-10-19T10:49:54.807Z,64.07
2017-10-19T10:52:22.372Z,67.97
2017-10-19T10:54:50.078Z,64.50
2017-10-19T10:57:17.649Z,68.97
2017-10-19T10:59:45.289Z,60.77
2017-10-19T11:02:13.805Z,65.83
2017-10-19T11:04:41.380Z,69.63
2017-10-19T11:07:09.005Z,72.50
2017-10-19T11:09:36.572Z,79.10
2017-10-19T11:12:04.147Z,79.27
2017-10-19T11:14:31.784Z,70.77
2017-10-19T11:16:59.357Z,87.10
2017-10-19T11:19:27.008Z,71.07
2017-10-19T11:21:54.575Z,77.50
2017-10-19T11:24:22.910Z,71.53
2017-10-19T11:26:50.472Z,76.93
2017-10-19T11:29:18.037Z,80.73
2017-10-19T11:31:45.636Z,83.40
2017-10-19T11:34:13.213Z,79.60
2017-10-19T11:36:40.782Z,78.70
2017-10-19T11:39:08.357Z,81.13
2017-10-19T11:41:35.920Z,76.23
2017-10-19T11:44:03.488Z,84.57
2017-10-19T11:46:31.055Z,82.57
2017-10-19T11:48:58.621Z,92.50
2017-10-19T11:51:26.181Z,94.63
2017-10-19T11:53:53.772Z,85.97
2017-10-19T11:56:21.641Z,77.27
2017-10-19T11:58:49.204Z,90.60
2017-10-19T12:01:16.819Z,83.53
2017-10-19T12:03:44.389Z,93.00
2017-10-19T12:06:11.952Z,85.13
2017-10-19T12:08:39.515Z,84.30
2017-10-19T12:11:07.081Z,90.63
2017-10-19T12:13:34.648Z,89.93
2017-10-19T12:16:02.341Z,89.47
2017-10-19T12:18:29.917Z,88.93
2017-10-19T12:20:57.516Z,97.03
2017-10-19T12:23:25.076Z,92.67
2017-10-19T12:25:52.681Z,101.33
2017-10-19T12:28:20.245Z,104.03
2017-10-19T12:30:49.095Z,119.70
2017-10-19T12:33:16.674Z,105.37
2017-10-19T12:35:44.245Z,100.83
2017-10-19T12:38:11.809Z,97.20
2017-10-19T12:40:39.380Z,111.80
2017-10-19T12:43:06.955Z,111.13
2017-10-19T12:45:34.526Z,97.37
2017-10-19T12:48:02.828Z,107.53
2017-10-19T12:50:30.592Z,116.97
2017-10-19T12:52:58.171Z,104.73
2017-10-19T12:55:25.744Z,111.83
2017-10-19T12:57:53.317Z,109.63
2017-10-19T13:00:20.891Z,103.60
2017-10-19T13:02:48.465Z,111.93
2017-10-19T13:05:16.074Z,98.87
2017-10-19T13:07:43.642Z,107.40
2017-10-19T13:10:11.212Z,105.43
2017-10-19T13:12:38.785Z,107.87
2017-10-19T13:15:06.445Z,104.30
2017-10-19T13:17:34.070Z,113.67
2017-10-19T13:20:01.637Z,97.53
2017-10-19T13:22:29.233Z,117.63
2017-10-19T13:24:56.811Z,110.83
2017-10-19T13:27:24.453Z,112.93
2017-10-19T13:29:52.474Z,102.20
2017-10-19T13:32:20.041Z,97.57
2017-10-19T13:34:47.614Z,106.80
2017-10-19T13:37:15.210Z,121.63
2017-10-19T13:39:42.814Z,110.23
2017-10-19T13:42:10.386Z,104.83
2017-10-19T13:44:38.089Z,109.40
2017-10-19T13:47:05.664Z,111.07
2017-10-19T13:49:33.240Z,116.50
2017-10-19T13:52:00.803Z,117.93
2017-10-19T13:54:28.378Z,111.03
2017-10-19T13:56:55.946Z,108.07
2017-10-19T13:59:23.517Z,102.43
2017-10-19T14:01:51.137Z,101.10
2017-10-19T14:04:18.711Z,100.20
2017-10-19T14:06:46.280Z,99.13
2017-10-19T14:09:13.848Z,95.10
2017-10-19T14:11:41.421Z,103.93
2017-10-19T14:14:09.128Z,101.37
2017-10-19T14:16:36.698Z,98.83
2017-10-19T14:19:04.309Z,99.17
2017-10-19T14:21:31.872Z,87.53
2017-10-19T14:23:59.847Z,92.47
2017-10-19T14:26:27.409Z,89.57
2017-10-19T14:28:54.985Z,100.37
2017-10-19T14:31:22.561Z,94.63
2017-10-19T14:33:50.193Z,89.87
2017-10-19T14:36:17.799Z,82.00
2017-10-19T14:38:45.383Z,88.63
2017-10-19T14:41:12.953Z,88.70
2017-10-19T14:43:40.566Z,96.57
2017-10-19T14:46:08.167Z,90.13
2017-10-19T14:48:35.792Z,87.43
2017-10-19T14:51:03.396Z,104.53
2017-10-19T14:53:30.958Z,91.20
2017-10-19T14:55:58.565Z,93.63
2017-10-19T14:58:26.139Z,83.33
2017-10-19T15:00:53.712Z,91.80
2017-10-19T15:03:21.468Z,84.30
2017-10-19T15:05:49.126Z,92.07
2017-10-19T15:08:16.784Z,85.87
2017-10-19T15:10:44.388Z,91.70
2017-10-19T15:13:12.004Z,98.07
2017-10-19T15:15:39.574Z,88.57
2017-10-19T15:18:07.180Z,95.90
2017-10-19T15:20:34.795Z,97.60
2017-10-19T15:23:02.457Z,97.37
2017-10-19T15:25:30.034Z,103.40
2017-10-19T15:27:57.603Z,98.70
2017-10-19T15:30:25.178Z,101.37
2017-10-19T15:32:52.793Z,102.43
2017-10-19T15:35:20.466Z,105.23
2017-10-19T15:37:48.062Z,105.03
2017-10-19T15:40:17.488Z,107.90
2017-10-19T15:42:45.049Z,117.43
2017-10-19T15:47:45.717Z,121.27
2017-10-19T15:50:13.288Z,127.13
2017-10-19T15:52:40.823Z,123.50
2017-10-19T15:55:08.356Z,126.40
2017-10-19T15:57:35.896Z,123.37
2017-10-19T16:00:03.519Z,125.37
2017-10-19T16:02:31.057Z,124.23
2017-10-19T16:04:58.635Z,122.40
2017-10-19T16:07:26.183Z,130.67
2017-10-19T16:09:54.251Z,133.17
2017-10-19T16:12:21.796Z,126.63
2017-10-19T16:14:49.345Z,120.47
2017-10-19T16:17:16.880Z,131.53
2017-10-19T16:19:44.429Z,114.60
2017-10-19T16:22:12.001Z,119.33
2017-10-19T16:24:39.539Z,112.57
2017-10-19T16:27:07.077Z,95.50
2017-10-19T16:29:34.671Z,114.47
2017-10-19T16:32:02.216Z,100.93
2017-10-19T16:34:29.769Z,104.70
2017-10-19T16:36:57.313Z,109.63
2017-10-19T16:39:24.897Z,122.43
2017-10-19T16:41:53.122Z,80.17
2017-10-19T16:44:20.660Z,108.90
2017-10-19T16:46:48.287Z,117.17
2017-10-19T16:49:15.861Z,108.00
2017-10-19T16:51:43.396Z,113.27
2017-10-19T16:54:10.936Z,111.83
2017-10-19T16:56:38.492Z,107.60
2017-10-19T16:59:06.087Z,114.73
2017-10-19T17:01:33.756Z,100.07
2017-10-19T17:04:01.297Z,107.40
2017-10-19T17:06:28.841Z,109.17
2017-10-19T17:08:57.304Z,98.73
2017-10-19T17:11:25.795Z,103.30
2017-10-19T17:13:55.788Z,104.67
2017-10-19T17:16:23.332Z,99.20
2017-10-19T17:18:50.906Z,94.37
2017-10-19T17:21:18.448Z,124.63
2017-10-19T17:23:45.984Z,112.57
2017-10-19T17:26:13.524Z,85.53
2017-10-19T17:28:41.061Z,95.80
2017-10-19T17:31:08.606Z,83.18
2017-10-19T17:33:36.152Z,117.33
2017-10-19T17:36:05.102Z,107.00
2017-10-19T17:38:34.764Z,98.70
2017-10-19T17:41:02.373Z,85.53
2017-10-19T17:43:29.910Z,101.83
2017-10-19T17:45:57.512Z,96.20
2017-10-19T17:48:25.044Z,89.67
2017-10-19T17:50:53.146Z,91.47
2017-10-19T17:53:20.946Z,84.73
2017-10-19T17:55:48.581Z,101.20
2017-10-19T17:58:16.122Z,83.27
2017-10-19T18:00:43.653Z,93.67
2017-10-19T18:03:11.879Z,89.33
2017-10-19T18:05:40.106Z,88.93
2017-10-19T18:08:07.709Z,89.03
2017-10-19T18:10:35.276Z,96.40
2017-10-19T18:13:02.816Z,82.10
2017-10-19T18:15:31.092Z,98.23
2017-10-19T18:17:58.628Z,95.57
2017-10-19T18:20:26.215Z,89.60
2017-10-19T18:22:54.464Z,111.80
2017-10-19T18:25:22.681Z,88.93
2017-10-19T18:27:50.220Z,98.90
2017-10-19T18:30:20.634Z,86.47
2017-10-19T18:32:48.164Z,88.17
2017-10-19T18:35:15.708Z,99.23
2017-10-19T18:37:43.599Z,96.47
2017-10-19T18:40:11.152Z,100.60
2017-10-19T18:42:38.730Z,107.07
2017-10-19T18:45:06.285Z,105.33
2017-10-19T18:47:33.986Z,93.13
2017-10-19T18:50:01.522Z,95.03
2017-10-19T18:52:29.100Z,90.40
2017-10-19T18:54:57.288Z,92.03
2017-10-19T18:57:24.970Z,88.10
2017-10-19T18:59:53.641Z,83.23
2017-10-19T19:02:21.198Z,75.37
2017-10-19T19:04:49.372Z,96.77
2017-10-19T19:07:17.234Z,107.87
2017-10-19T19:09:45.006Z,98.07
2017-10-19T19:12:13.907Z,115.67
2017-10-19T19:14:43.608Z,97.73
2017-10-19T19:17:11.564Z,87.03
2017-10-19T19:19:41.265Z,101.13
2017-10-19T19:22:11.366Z,102.63
2017-10-19T19:24:41.658Z,107.37
2017-10-19T19:27:10.562Z,105.03
2017-10-19T19:29:39.239Z,107.13
2017-10-19T19:32:07.197Z,96.03
2017-10-19T19:34:34.790Z,92.33
2017-10-19T19:37:02.818Z,99.57
2017-10-19T19:39:30.390Z,97.53
2017-10-19T19:41:58.065Z,96.63
2017-10-19T19:44:25.610Z,103.87
2017-10-19T19:46:55.662Z,98.07
2017-10-19T19:49:23.437Z,92.67
2017-10-19T19:51:51.041Z,100.80
2017-10-19T19:54:18.693Z,98.90
2017-10-19T19:56:46.254Z,102.83
2017-10-19T19:59:13.854Z,104.60
2017-10-19T20:01:41.519Z,115.63
2017-10-19T20:04:09.393Z,121.77
2017-10-19T20:06:36.976Z,141.70
2017-10-19T20:09:04.535Z,122.57
2017-10-19T20:11:32.094Z,111.40
2017-10-19T20:13:59.697Z,112.33
2017-10-19T20:16:27.277Z,125.87
2017-10-19T20:18:54.849Z,134.43
2017-10-19T20:21:22.941Z,117.47
2017-10-19T20:23:50.480Z,139.10
2017-10-19T20:26:18.026Z,118.73
2017-10-19T20:28:45.570Z,120.63
2017-10-19T20:31:13.104Z,119.87
2017-10-19T20:33:40.656Z,115.90
2017-10-19T20:36:08.201Z,137.90
2017-10-19T20:38:35.930Z,131.00
2017-10-19T20:41:03.480Z,128.80
2017-10-19T20:43:31.153Z,125.77
2017-10-19T20:45:58.822Z,123.83
2017-10-19T20:48:26.377Z,110.37
2017-10-19T20:50:55.519Z,115.40
2017-10-19T20:53:24.080Z,112.77
2017-10-19T20:55:51.725Z,135.60
2017-10-19T20:58:19.266Z,116.77
2017-10-19T21:00:46.814Z,120.47
2017-10-19T21:03:14.406Z,121.50
2017-10-19T21:05:41.962Z,100.23
2017-10-19T21:08:09.556Z,112.53
2017-10-19T21:10:37.179Z,108.50
2017-10-19T21:13:04.731Z,138.27
2017-10-19T21:15:32.285Z,131.87
2017-10-19T21:17:59.835Z,113.40
2017-10-19T21:20:27.382Z,121.67
2017-10-19T21:22:54.972Z,117.67
2017-10-19T21:25:23.353Z,91.73
2017-10-19T21:27:50.885Z,99.57
2017-10-19T21:30:18.501Z,109.47
2017-10-19T21:32:46.042Z,102.47
2017-10-19T21:35:13.631Z,114.10
2017-10-19T21:37:41.274Z,116.57
2017-10-19T21:40:08.854Z,109.77
2017-10-19T21:42:36.517Z,115.70
